Time;durP1;ratioP1;P1;durP2;ratioP2;P2;SDS_P1;SDS_P2;PMS_P1;PMS_P2;Temp;Humidity;BMP_temperature;BMP_pressure;BME280_temperature;BME280_humidity;BME280_pressure;Samples;Min_cycle;Max_cycle;Signal;HPM_P1;HPM_P2
2023/09/02 00:00:45;;;;;;;5.88;2.95;;;;;;;17.59;63.46;93033.19;2048486;70;20193;-77
2023/09/02 00:03:15;;;;;;;4.47;3.10;;;;;;;17.35;64.84;93039.38;2048691;70;20163;-78
2023/09/02 00:05:45;;;;;;;4.88;3.00;;;;;;;17.48;64.70;93041.34;2050043;70;20308;-78
2023/09/02 00:08:12;;;;;;;5.55;3.10;;;;;;;17.41;65.41;93036.78;2050975;70;20180;-78
2023/09/02 00:10:41;;;;;;;8.48;2.95;;;;;;;17.50;65.03;93038.59;2051311;70;20545;-77
2023/09/02 00:13:09;;;;;;;8.18;3.00;;;;;;;17.57;65.07;93033.13;2053630;70;20161;-77
2023/09/02 00:15:36;;;;;;;5.57;2.90;;;;;;;17.55;64.92;93033.78;2054312;70;20182;-77
2023/09/02 00:18:07;;;;;;;4.95;2.70;;;;;;;17.48;63.95;93043.44;2054830;70;20177;-77
2023/09/02 00:20:39;;;;;;;6.13;3.20;;;;;;;17.53;63.57;93040.13;2054408;70;20330;-77
2023/09/02 00:23:06;;;;;;;5.88;2.88;;;;;;;17.52;64.69;93040.78;2053807;69;20181;-77
2023/09/02 00:25:34;;;;;;;6.15;3.25;;;;;;;17.39;65.82;93039.53;2054657;70;20259;-78
2023/09/02 00:28:04;;;;;;;7.10;2.88;;;;;;;17.45;65.29;93045.47;2054236;70;20154;-75
2023/09/02 00:30:35;;;;;;;4.65;2.72;;;;;;;17.48;63.65;93044.19;2054590;70;20200;-77
2023/09/02 00:33:27;;;;;;;5.30;3.25;;;;;;;17.37;64.81;93045.16;2054264;70;20612;-77
2023/09/02 00:36:01;;;;;;;7.40;2.80;;;;;;;17.40;64.86;93046.69;2054783;70;20179;-77
2023/09/02 00:38:31;;;;;;;7.18;2.90;;;;;;;17.27;64.65;93047.56;2053983;70;20185;-77
2023/09/02 00:41:18;;;;;;;6.85;3.13;;;;;;;17.30;64.03;93031.31;2054985;70;20164;-77
2023/09/02 00:43:47;;;;;;;3.30;2.75;;;;;;;17.31;65.78;93039.19;2047904;70;20173;-77
2023/09/02 00:46:15;;;;;;;5.30;2.83;;;;;;;17.37;65.33;93042.31;2050871;70;20916;-77
2023/09/02 00:48:45;;;;;;;6.18;3.17;;;;;;;17.16;65.88;93037.16;2054147;70;20161;-78
2023/09/02 00:51:16;;;;;;;3.67;3.05;;;;;;;17.17;64.99;93030.81;2052429;70;20190;-78
2023/09/02 00:57:34;;;;;;;3.70;2.85;;;;;;;17.09;66.02;93044.72;2052935;70;20243;-77
2023/09/02 01:00:05;;;;;;;3.63;2.75;;;;;;;17.20;65.51;93045.88;2053491;70;20195;-77
2023/09/02 01:02:37;;;;;;;5.50;2.97;;;;;;;16.87;65.69;93053.03;2051237;70;20134;-76
2023/09/02 01:05:07;;;;;;;3.95;3.03;;;;;;;16.81;66.29;93041.38;2053384;70;20570;-77
2023/09/02 01:07:39;;;;;;;6.05;3.45;;;;;;;17.09;65.70;93043.97;2054058;70;20279;-77
2023/09/02 01:10:06;;;;;;;7.38;3.08;;;;;;;17.11;65.42;93052.59;2056727;69;20254;-78
2023/09/02 01:12:33;;;;;;;4.60;3.10;;;;;;;17.08;65.69;93053.88;2057540;69;20601;-78
2023/09/02 01:15:11;;;;;;;4.50;3.05;;;;;;;16.94;65.19;93054.00;2053811;69;20172;-77
2023/09/02 01:18:13;;;;;;;5.65;3.42;;;;;;;16.89;66.10;93058.78;2054166;69;20142;-78
2023/09/02 01:21:00;;;;;;;7.03;3.60;;;;;;;16.89;66.40;93060.91;2056740;69;20152;-77
2023/09/02 01:23:46;;;;;;;7.40;3.30;;;;;;;16.91;65.71;93056.03;2057514;69;20707;-77
2023/09/02 01:26:52;;;;;;;5.68;3.20;;;;;;;16.83;65.93;93055.69;2056865;69;20681;-77
2023/09/02 01:29:23;;;;;;;5.70;2.90;;;;;;;16.80;66.90;93053.41;2053729;69;20164;-77
2023/09/02 01:31:52;;;;;;;5.68;3.40;;;;;;;16.77;65.70;93059.00;2057890;69;20150;-77
2023/09/02 01:34:23;;;;;;;5.20;3.00;;;;;;;16.63;66.42;93055.53;2054010;69;20516;-77
2023/09/02 01:37:02;;;;;;;5.82;3.20;;;;;;;16.60;66.52;93062.47;2057270;69;20182;-77
2023/09/02 01:39:34;;;;;;;4.82;3.05;;;;;;;16.74;66.72;93057.44;2054509;69;20161;-77
2023/09/02 01:42:04;;;;;;;5.30;3.30;;;;;;;16.60;65.87;93053.94;2057891;69;20149;-78
2023/09/02 01:44:36;;;;;;;4.50;3.35;;;;;;;16.56;66.59;93061.56;2057173;69;20153;-77
2023/09/02 01:47:11;;;;;;;3.77;2.90;;;;;;;16.65;65.67;93060.56;2054683;69;20601;-77
2023/09/02 01:49:39;;;;;;;4.47;3.17;;;;;;;16.80;65.64;93065.50;2057841;69;20521;-77
2023/09/02 01:52:06;;;;;;;3.92;2.85;;;;;;;16.80;65.25;93062.66;2058020;69;20173;-77
2023/09/02 01:54:34;;;;;;;4.50;3.30;;;;;;;16.65;66.15;93069.81;2057201;69;20170;-78
2023/09/02 01:57:01;;;;;;;5.80;3.05;;;;;;;16.61;65.95;93080.25;2053789;69;20161;-76
2023/09/02 01:59:31;;;;;;;5.95;3.22;;;;;;;16.79;64.87;93077.53;2054262;69;20148;-77
2023/09/02 02:02:00;;;;;;;6.53;3.13;;;;;;;16.70;66.88;93076.41;2057698;69;20600;-77
2023/09/02 02:04:37;;;;;;;4.60;3.25;;;;;;;16.59;66.63;93075.22;2057456;69;20181;-77
2023/09/02 02:07:14;;;;;;;5.00;2.90;;;;;;;16.58;66.40;93078.69;2053579;70;20259;-78
2023/09/02 02:09:47;;;;;;;4.97;3.28;;;;;;;16.62;65.46;93076.03;2055667;69;20517;-77
2023/09/02 02:12:14;;;;;;;4.45;3.33;;;;;;;16.52;65.91;93079.91;2057052;69;20217;-78
2023/09/02 02:14:40;;;;;;;8.27;3.05;;;;;;;16.40;65.57;93070.84;2057298;69;20138;-77
2023/09/02 02:17:06;;;;;;;6.03;3.15;;;;;;;16.51;65.75;93072.03;2050777;70;20166;-78
2023/09/02 02:19:38;;;;;;;5.57;3.25;;;;;;;16.58;66.28;93064.50;2051993;69;20200;-77
2023/09/02 02:22:04;;;;;;;6.55;3.05;;;;;;;16.55;67.30;93072.22;2053318;69;20227;-79
2023/09/02 02:24:33;;;;;;;7.30;2.90;;;;;;;16.45;67.59;93072.50;2056858;69;20189;-77
2023/09/02 02:26:59;;;;;;;5.65;3.17;;;;;;;16.47;67.37;93077.53;2053431;69;20157;-77
2023/09/02 02:29:25;;;;;;;6.07;3.30;;;;;;;16.44;67.31;93076.69;2054119;69;20180;-77
2023/09/02 02:31:58;;;;;;;3.67;3.00;;;;;;;16.46;66.81;93076.78;2056965;69;20173;-77
2023/09/02 02:34:25;;;;;;;5.32;3.10;;;;;;;16.29;67.27;93077.44;2057446;69;20137;-77
2023/09/02 02:36:52;;;;;;;5.03;3.17;;;;;;;16.39;66.85;93077.16;2056810;69;20173;-78
2023/09/02 02:39:19;;;;;;;5.00;3.00;;;;;;;16.30;67.64;93078.88;2054477;69;20628;-78
2023/09/02 02:42:36;;;;;;;4.55;3.20;;;;;;;16.47;66.84;93083.19;2056427;69;20255;-78
2023/09/02 02:45:02;;;;;;;4.68;3.08;;;;;;;16.38;67.53;93081.38;2055464;69;20142;-78
2023/09/02 02:47:27;;;;;;;4.60;3.03;;;;;;;16.42;67.61;93078.72;2053244;69;20137;-78
2023/09/02 02:49:53;;;;;;;6.57;3.15;;;;;;;16.42;66.83;93078.72;2054383;69;20683;-78
2023/09/02 02:52:20;;;;;;;6.38;3.20;;;;;;;16.39;66.19;93080.72;2053713;69;20140;-78
2023/09/02 02:54:46;;;;;;;5.03;3.00;;;;;;;16.30;67.19;93076.03;2053730;69;20169;-78
2023/09/02 02:57:11;;;;;;;4.13;3.55;;;;;;;16.37;66.55;93077.06;2052449;70;20549;-78
2023/09/02 02:59:39;;;;;;;3.97;3.00;;;;;;;16.29;67.32;93080.25;2050913;70;20153;-78
2023/09/02 03:02:06;;;;;;;5.43;3.00;;;;;;;16.10;67.79;93077.97;2055050;69;20788;-77
2023/09/02 03:04:35;;;;;;;5.82;3.35;;;;;;;16.29;67.20;93082.38;2054708;69;20209;-78
2023/09/02 03:07:29;;;;;;;7.68;3.10;;;;;;;16.30;67.10;93083.84;2058257;69;20619;-77
2023/09/02 03:09:55;;;;;;;5.93;3.08;;;;;;;16.27;66.54;93083.03;2056724;69;20200;-78
2023/09/02 03:12:23;;;;;;;5.75;3.35;;;;;;;16.25;67.66;93089.31;2054842;69;20137;-78
2023/09/02 03:14:49;;;;;;;4.40;3.03;;;;;;;16.18;67.67;93093.28;2057441;69;20188;-78
2023/09/02 03:17:20;;;;;;;3.58;3.03;;;;;;;16.18;67.32;93089.72;2053997;70;20184;-77
2023/09/02 03:19:48;;;;;;;5.13;2.80;;;;;;;16.14;68.26;93086.69;2054350;69;20157;-77
2023/09/02 03:22:16;;;;;;;7.60;3.40;;;;;;;16.18;67.58;93090.44;2055003;69;20214;-78
2023/09/02 03:24:43;;;;;;;4.68;2.92;;;;;;;16.16;66.60;93093.16;2054910;69;20165;-79
2023/09/02 03:27:10;;;;;;;5.35;3.50;;;;;;;15.86;67.42;93098.16;2058207;69;20146;-78
2023/09/02 03:29:36;;;;;;;4.97;3.47;;;;;;;15.67;68.39;93093.00;2054851;69;20172;-77
2023/09/02 03:32:04;;;;;;;5.72;3.38;;;;;;;15.81;68.18;93088.00;2054970;69;20169;-77
2023/09/02 03:34:30;;;;;;;5.40;3.33;;;;;;;15.75;68.59;93088.41;2057726;69;20161;-78
2023/09/02 03:36:56;;;;;;;6.57;3.20;;;;;;;15.73;68.32;93094.00;2058210;69;20256;-78
2023/09/02 03:39:21;;;;;;;4.85;3.60;;;;;;;15.64;68.91;93097.09;2052166;69;20146;-78
2023/09/02 03:41:47;;;;;;;6.88;3.55;;;;;;;15.67;68.68;93099.41;2055029;69;20165;-78
2023/09/02 03:44:12;;;;;;;5.43;3.53;;;;;;;15.83;67.42;93096.59;2054615;69;20138;-78
2023/09/02 03:46:48;;;;;;;4.45;3.20;;;;;;;15.86;68.97;93101.00;2057756;69;20144;-76
2023/09/02 03:49:15;;;;;;;4.72;3.13;;;;;;;15.79;68.45;93099.25;2054928;69;20236;-77
2023/09/02 03:51:42;;;;;;;3.95;3.05;;;;;;;15.63;68.16;93098.44;2054921;69;20157;-79
2023/09/02 03:54:09;;;;;;;7.53;3.28;;;;;;;15.71;67.48;93108.13;2053677;70;20165;-78
2023/09/02 03:56:36;;;;;;;7.30;3.30;;;;;;;15.77;67.57;93104.81;2051336;70;20154;-78
2023/09/02 03:59:04;;;;;;;4.35;3.42;;;;;;;15.62;67.06;93088.44;2051317;70;20157;-78
2023/09/02 04:01:31;;;;;;;5.03;3.25;;;;;;;15.70;68.66;93100.22;2052769;69;20156;-78
2023/09/02 04:03:56;;;;;;;5.00;3.33;;;;;;;15.81;67.87;93104.28;2054601;69;20141;-77
2023/09/02 04:06:22;;;;;;;5.32;3.63;;;;;;;15.87;68.23;93105.31;2058223;69;20149;-78
2023/09/02 04:08:48;;;;;;;6.72;3.35;;;;;;;15.54;69.02;93107.94;2058140;69;20490;-79
2023/09/02 04:11:15;;;;;;;4.75;3.35;;;;;;;15.66;68.16;93105.69;2058430;69;20138;-78
2023/09/02 04:13:41;;;;;;;6.10;3.22;;;;;;;15.74;68.11;93106.09;2054755;69;20142;-78
2023/09/02 04:16:10;;;;;;;4.82;3.35;;;;;;;15.60;69.34;93105.38;2055102;69;20207;-78
2023/09/02 04:18:37;;;;;;;4.43;3.22;;;;;;;15.59;68.83;93093.31;2055093;69;20559;-78
2023/09/02 04:21:03;;;;;;;3.75;2.90;;;;;;;15.63;68.93;93104.84;2052369;69;20150;-79
2023/09/02 04:23:30;;;;;;;3.95;3.35;;;;;;;15.62;68.53;93103.38;2054688;69;20169;-78
2023/09/02 04:26:02;;;;;;;3.83;3.22;;;;;;;15.65;68.83;93113.47;2054927;69;20137;-77
2023/09/02 04:28:28;;;;;;;3.88;3.05;;;;;;;15.51;69.06;93104.97;2051821;69;20605;-78
2023/09/02 04:30:59;;;;;;;4.05;3.05;;;;;;;15.63;68.73;93104.13;2052064;69;20237;-78
2023/09/02 04:33:28;;;;;;;5.63;3.25;;;;;;;15.43;69.40;93107.41;2054581;69;20149;-82
2023/09/02 04:35:55;;;;;;;4.75;3.60;;;;;;;15.49;68.86;93110.56;2057741;69;20160;-80
2023/09/02 04:38:22;;;;;;;4.75;3.20;;;;;;;15.58;68.46;93110.94;2054454;69;20149;-81
2023/09/02 04:40:51;;;;;;;4.60;3.03;;;;;;;15.42;68.78;93110.91;2054492;69;20197;-79
2023/09/02 04:43:17;;;;;;;4.85;3.25;;;;;;;15.44;68.24;93100.41;2053952;69;20191;-78
2023/09/02 04:45:44;;;;;;;6.35;3.22;;;;;;;15.46;68.47;93120.34;2050976;70;20153;-80
2023/09/02 04:48:14;;;;;;;4.43;3.20;;;;;;;15.59;68.24;93118.84;2055582;69;20153;-81
2023/09/02 04:50:40;;;;;;;6.72;3.00;;;;;;;15.60;68.51;93120.31;2058057;69;20145;-81
2023/09/02 04:53:07;;;;;;;5.18;3.30;;;;;;;15.63;68.82;93133.22;2054939;69;20156;-79
2023/09/02 04:55:39;;;;;;;5.05;3.17;;;;;;;15.70;67.99;93131.44;2054532;69;20168;-80
2023/09/02 04:58:07;;;;;;;4.85;2.92;;;;;;;15.61;68.93;93138.06;2054719;69;20203;-80
2023/09/02 05:00:35;;;;;;;5.53;3.20;;;;;;;15.61;68.98;93141.63;2055178;69;20144;-79
2023/09/02 05:03:01;;;;;;;6.40;3.28;;;;;;;15.60;69.19;93142.28;2058867;69;20227;-80
2023/09/02 05:05:30;;;;;;;3.78;3.05;;;;;;;15.65;68.31;93143.97;2054237;70;20138;-80
2023/09/02 05:07:56;;;;;;;5.28;3.53;;;;;;;15.44;68.43;93140.09;2055189;70;20205;-80
2023/09/02 05:10:23;;;;;;;4.30;3.30;;;;;;;15.49;67.79;93144.63;2051539;70;20245;-79
2023/09/02 05:12:49;;;;;;;4.97;3.40;;;;;;;15.44;68.64;93145.03;2055114;70;20130;-79
2023/09/02 05:15:15;;;;;;;4.47;3.10;;;;;;;15.48;68.61;93156.59;2054215;69;20597;-78
2023/09/02 05:17:40;;;;;;;6.22;3.53;;;;;;;15.37;68.80;93149.69;2055312;69;20141;-78
2023/09/02 05:20:07;;;;;;;6.20;4.25;;;;;;;15.40;68.73;93156.94;2058434;69;20260;-78
2023/09/02 05:22:33;;;;;;;5.80;4.00;;;;;;;15.34;68.82;93165.13;2058219;69;20177;-78
2023/09/02 05:25:00;;;;;;;7.00;3.92;;;;;;;15.38;68.70;93170.25;2057934;69;20181;-76
2023/09/02 05:27:27;;;;;;;5.10;3.70;;;;;;;15.36;69.28;93168.06;2054364;69;20177;-78
2023/09/02 05:29:54;;;;;;;4.15;3.30;;;;;;;15.37;68.30;93165.97;2054667;69;20150;-78
2023/09/02 05:32:20;;;;;;;5.75;3.30;;;;;;;15.41;68.13;93177.50;2058158;69;20224;-79
2023/09/02 05:34:46;;;;;;;5.85;3.40;;;;;;;15.43;68.81;93177.59;2058134;69;20162;-79
2023/09/02 05:37:11;;;;;;;10.38;3.50;;;;;;;15.42;68.21;93176.88;2058349;69;20146;-79
2023/09/02 05:39:37;;;;;;;5.80;3.70;;;;;;;15.33;68.71;93172.16;2058009;69;20138;-78
2023/09/02 05:42:03;;;;;;;5.85;3.30;;;;;;;15.41;68.51;93169.75;2058253;69;20141;-79
2023/09/02 05:44:31;;;;;;;8.43;3.63;;;;;;;15.52;67.15;93166.03;2057982;69;20149;-79
2023/09/02 05:46:57;;;;;;;4.95;3.25;;;;;;;15.61;66.65;93170.00;2054965;69;20620;-80
2023/09/02 05:49:23;;;;;;;7.50;3.72;;;;;;;15.43;68.68;93171.94;2057782;69;20150;-81
2023/09/02 05:51:49;;;;;;;6.80;3.78;;;;;;;15.52;67.65;93166.03;2058201;69;20137;-80
2023/09/02 05:54:15;;;;;;;4.97;3.47;;;;;;;15.56;68.41;93181.81;2057877;69;20597;-80
2023/09/02 05:56:40;;;;;;;5.93;3.03;;;;;;;15.53;69.53;93172.44;2057749;69;20153;-81
2023/09/02 05:59:06;;;;;;;4.18;3.30;;;;;;;15.61;67.61;93177.78;2057387;69;20481;-80
2023/09/02 06:01:32;;;;;;;5.13;3.17;;;;;;;15.61;68.10;93189.13;2058180;69;20525;-81
2023/09/02 06:03:58;;;;;;;6.78;3.22;;;;;;;15.48;68.47;93190.63;2058089;69;20149;-80
2023/09/02 06:06:24;;;;;;;4.50;3.13;;;;;;;15.49;68.08;93173.00;2057875;69;20232;-80
2023/09/02 06:08:50;;;;;;;4.50;3.40;;;;;;;15.58;68.50;93176.22;2057964;69;20525;-79
2023/09/02 06:11:16;;;;;;;5.03;3.25;;;;;;;15.45;69.17;93180.56;2058044;69;20157;-80
2023/09/02 06:13:41;;;;;;;5.63;3.22;;;;;;;15.32;68.41;93164.28;2058013;69;20512;-80
2023/09/02 06:16:07;;;;;;;5.43;3.38;;;;;;;15.48;67.66;93174.34;2058321;69;20137;-80
2023/09/02 06:18:35;;;;;;;4.22;2.97;;;;;;;15.51;67.41;93175.19;2058152;69;20614;-79
2023/09/02 06:21:13;;;;;;;7.35;3.17;;;;;;;15.55;67.86;93177.50;2057192;69;20233;-79
2023/09/02 06:23:43;;;;;;;5.07;3.13;;;;;;;15.72;67.39;93179.81;2057448;69;20178;-80
2023/09/02 06:26:11;;;;;;;6.18;3.40;;;;;;;15.49;67.60;93158.81;2057833;69;20206;-80
2023/09/02 06:28:39;;;;;;;4.35;3.40;;;;;;;15.45;67.39;93169.94;2054770;69;20709;-79
2023/09/02 06:31:06;;;;;;;4.63;3.30;;;;;;;15.49;66.91;93164.47;2057994;69;20133;-80
2023/09/02 06:33:31;;;;;;;4.57;3.20;;;;;;;15.67;66.39;93161.13;2054617;69;20688;-80
2023/09/02 06:35:57;;;;;;;4.43;3.08;;;;;;;15.81;66.92;93175.25;2055154;69;20229;-80
2023/09/02 06:38:23;;;;;;;4.10;3.03;;;;;;;15.59;68.36;93167.09;2057560;69;20213;-78
2023/09/02 06:40:49;;;;;;;4.38;3.20;;;;;;;15.72;68.09;93174.84;2057991;69;20660;-79
2023/09/02 06:43:14;;;;;;;6.57;3.53;;;;;;;15.87;67.76;93172.72;2058357;69;20177;-79
2023/09/02 06:45:40;;;;;;;4.93;3.08;;;;;;;15.78;68.93;93163.06;2056428;69;20145;-78
2023/09/02 06:48:06;;;;;;;5.50;2.83;;;;;;;16.21;68.79;93170.78;2058604;69;20275;-79
2023/09/02 06:50:34;;;;;;;3.70;2.95;;;;;;;16.50;68.03;93172.88;2058627;69;20125;-79
2023/09/02 06:53:00;;;;;;;5.47;2.95;;;;;;;16.59;66.92;93163.34;2054860;70;20166;-79
2023/09/02 06:55:27;;;;;;;6.05;3.13;;;;;;;16.96;67.25;93173.56;2055402;70;20149;-79
2023/09/02 06:57:54;;;;;;;5.57;2.97;;;;;;;17.19;66.09;93175.28;2055018;69;20612;-80
2023/09/02 07:00:19;;;;;;;4.80;2.85;;;;;;;17.41;65.63;93176.25;2057871;69;20236;-80
2023/09/02 07:02:45;;;;;;;5.90;3.25;;;;;;;17.50;64.28;93177.31;2058754;69;20211;-79
2023/09/02 07:05:11;;;;;;;4.32;3.15;;;;;;;17.79;64.05;93167.88;2054612;69;20134;-80
2023/09/02 07:07:37;;;;;;;6.85;3.42;;;;;;;17.79;63.19;93173.59;2057105;69;20244;-80
2023/09/02 07:10:04;;;;;;;6.07;3.25;;;;;;;18.20;62.85;93172.38;2056891;69;20133;-81
2023/09/02 07:12:31;;;;;;;5.13;3.15;;;;;;;18.55;62.89;93171.59;2054433;69;20241;-81
2023/09/02 07:14:57;;;;;;;6.50;2.90;;;;;;;18.58;61.86;93173.16;2057533;69;20149;-82
2023/09/02 07:17:26;;;;;;;4.30;2.88;;;;;;;18.68;60.71;93167.84;2058768;69;20199;-82
2023/09/02 07:19:51;;;;;;;5.47;3.20;;;;;;;18.79;59.62;93166.88;2058771;69;20153;-82
2023/09/02 07:22:17;;;;;;;5.32;3.17;;;;;;;18.85;59.48;93160.66;2058357;69;20145;-81
2023/09/02 07:24:43;;;;;;;3.63;2.95;;;;;;;18.99;58.78;93155.50;2057912;69;20142;-82
2023/09/02 07:27:09;;;;;;;5.25;3.38;;;;;;;19.37;58.66;93163.25;2058658;69;20291;-83
2023/09/02 07:29:34;;;;;;;4.50;2.90;;;;;;;19.54;57.74;93159.56;2058635;69;20639;-82
2023/09/02 07:32:00;;;;;;;6.90;2.70;;;;;;;19.77;59.59;93163.97;2058294;69;20162;-82
2023/09/02 07:34:25;;;;;;;4.18;2.80;;;;;;;19.83;55.17;93157.72;2054459;70;20173;-83
2023/09/02 07:36:51;;;;;;;3.20;2.50;;;;;;;20.37;56.20;93160.91;2055497;69;20141;-83
2023/09/02 07:39:17;;;;;;;4.70;2.67;;;;;;;20.58;56.47;93154.47;2058146;69;20153;-82
2023/09/02 07:41:43;;;;;;;3.70;3.10;;;;;;;20.77;55.04;93156.47;2058591;69;20219;-83
2023/09/02 07:44:09;;;;;;;5.25;3.20;;;;;;;20.94;53.60;93163.41;2058497;69;20174;-84
2023/09/02 07:46:34;;;;;;;5.05;3.20;;;;;;;21.25;54.05;93161.41;2058295;69;20236;-84
2023/09/02 07:49:00;;;;;;;6.35;3.10;;;;;;;21.34;54.18;93154.53;2058582;69;20541;-84
2023/09/02 07:51:25;;;;;;;4.95;3.42;;;;;;;21.63;53.26;93172.53;2058192;69;20198;-84
2023/09/02 07:53:51;;;;;;;6.15;2.72;;;;;;;21.48;52.92;93168.53;2058536;69;20133;-84
2023/09/02 07:56:17;;;;;;;4.20;2.70;;;;;;;21.71;54.43;93167.00;2057896;69;20162;-84
2023/09/02 07:58:46;;;;;;;3.65;3.10;;;;;;;21.83;53.40;93162.31;2058397;69;20529;-83
2023/09/02 08:01:12;;;;;;;7.00;2.97;;;;;;;21.52;53.53;93169.38;2058541;69;20137;-84
2023/09/02 08:03:38;;;;;;;6.93;3.30;;;;;;;21.66;52.16;93169.03;2058067;69;20219;-83
2023/09/02 08:06:07;;;;;;;4.35;3.20;;;;;;;22.16;52.53;93168.91;2058659;69;20596;-83
2023/09/02 08:08:32;;;;;;;4.57;2.78;;;;;;;22.66;51.40;93171.56;2058369;69;20224;-85
2023/09/02 08:11:06;;;;;;;3.83;2.80;;;;;;;22.59;49.11;93169.97;2058198;69;20149;-84
2023/09/02 08:13:32;;;;;;;5.45;2.88;;;;;;;22.89;49.79;93174.94;2058567;69;20141;-84
2023/09/02 08:15:58;;;;;;;4.78;2.75;;;;;;;23.10;47.69;93176.16;2058655;69;20169;-85
2023/09/02 08:18:24;;;;;;;3.70;2.30;;;;;;;22.80;46.91;93171.16;2058951;69;20146;-84
2023/09/02 08:20:50;;;;;;;4.03;2.47;;;;;;;23.08;47.80;93177.53;2058920;69;20157;-84
2023/09/02 08:23:15;;;;;;;3.60;2.50;;;;;;;23.49;47.13;93183.41;2058815;69;20145;-85
2023/09/02 08:25:41;;;;;;;3.83;2.60;;;;;;;23.68;45.60;93175.91;2058961;69;20223;-84
2023/09/02 08:28:07;;;;;;;4.40;2.50;;;;;;;23.96;46.34;93178.59;2058799;69;20183;-83
2023/09/02 08:30:33;;;;;;;5.03;2.63;;;;;;;23.96;44.97;93176.47;2058718;69;20610;-85
2023/09/02 08:32:58;;;;;;;4.55;2.65;;;;;;;24.29;45.03;93179.94;2058470;69;20663;-84
2023/09/02 08:35:24;;;;;;;2.78;2.35;;;;;;;24.49;44.76;93170.91;2058800;69;20142;-85
2023/09/02 08:37:51;;;;;;;4.00;2.58;;;;;;;24.82;43.55;93175.75;2058731;69;20508;-85
2023/09/02 08:40:17;;;;;;;3.33;2.75;;;;;;;25.26;42.33;93172.09;2058422;69;20166;-86
2023/09/02 08:42:43;;;;;;;3.85;2.53;;;;;;;25.24;44.55;93172.06;2058771;69;20152;-85
2023/09/02 08:45:09;;;;;;;5.35;2.58;;;;;;;25.59;43.18;93169.63;2058388;69;20138;-86
2023/09/02 08:47:40;;;;;;;5.25;2.72;;;;;;;25.65;42.93;93169.69;2058698;69;20650;-85
2023/09/02 08:50:10;;;;;;;4.10;2.65;;;;;;;25.92;43.87;93175.78;2058522;69;20153;-84
2023/09/02 08:52:37;;;;;;;4.25;2.83;;;;;;;25.86;42.64;93176.44;2057857;69;20157;-87
2023/09/02 08:55:03;;;;;;;4.35;2.70;;;;;;;26.06;42.32;93179.53;2058802;69;20229;-86
2023/09/02 08:57:29;;;;;;;4.80;2.55;;;;;;;26.62;42.17;93172.16;2058901;69;20157;-86
2023/09/02 08:59:55;;;;;;;3.70;2.97;;;;;;;26.72;40.22;93178.03;2058190;69;20165;-86
2023/09/02 09:02:21;;;;;;;5.57;3.10;;;;;;;27.05;40.06;93181.13;2058500;69;20149;-87
2023/09/02 09:04:52;;;;;;;3.50;2.50;;;;;;;26.97;40.60;93181.81;2059790;69;20177;-87
2023/09/02 09:07:19;;;;;;;3.45;2.92;;;;;;;26.85;39.00;93178.84;2060502;69;20204;-87
2023/09/02 09:09:46;;;;;;;4.50;2.58;;;;;;;27.38;41.10;93167.63;2060898;69;20137;-86
2023/09/02 09:12:13;;;;;;;3.60;2.60;;;;;;;27.50;39.36;93181.44;2059090;69;20298;-88
2023/09/02 09:14:45;;;;;;;3.75;2.75;;;;;;;27.63;39.80;93174.28;2061280;69;20225;-86
2023/09/02 09:17:12;;;;;;;3.03;2.50;;;;;;;27.94;39.57;93175.13;2061420;69;20149;-88
2023/09/02 09:19:39;;;;;;;3.42;2.80;;;;;;;28.06;38.67;93175.16;2061475;69;20153;-87
2023/09/02 09:22:04;;;;;;;4.38;2.30;;;;;;;28.61;38.46;93175.28;2055113;69;20160;-88
2023/09/02 09:24:30;;;;;;;3.58;2.30;;;;;;;28.86;38.31;93173.13;2060976;69;20627;-87
2023/09/02 09:26:58;;;;;;;2.85;2.33;;;;;;;29.04;37.84;93165.88;2060921;69;20177;-85
2023/09/02 09:29:24;;;;;;;4.22;2.30;;;;;;;28.66;35.09;93169.47;2059823;69;20209;-86
2023/09/02 09:32:06;;;;;;;2.63;2.42;;;;;;;29.01;37.75;93161.53;2059463;69;20148;-86
2023/09/02 09:34:37;;;;;;;;;;;;;;;29.92;36.36;93159.81;2060784;69;20168;-88
2023/09/02 09:37:03;;;;;;;4.78;2.40;;;;;;;29.98;35.58;93166.34;2059406;69;20097;-86
2023/09/02 09:39:40;;;;;;;2.60;2.40;;;;;;;29.57;34.39;93165.78;2058486;69;20598;-85
2023/09/02 09:42:06;;;;;;;5.20;2.75;;;;;;;29.99;34.29;93155.44;2057893;69;20165;-85
2023/09/02 09:44:32;;;;;;;2.67;2.30;;;;;;;30.51;35.01;93150.81;2054858;69;20212;-85
2023/09/02 09:46:59;;;;;;;4.53;2.15;;;;;;;31.24;32.96;93158.91;2058332;69;20212;-86
2023/09/02 09:49:30;;;;;;;5.13;2.42;;;;;;;29.81;34.55;93154.06;2054997;69;20162;-85
2023/09/02 09:52:05;;;;;;;4.00;2.17;;;;;;;29.96;34.84;93154.00;2058375;69;20614;-87
2023/09/02 09:54:40;;;;;;;3.10;2.22;;;;;;;30.32;34.35;93147.31;2058481;69;20615;-84
2023/09/02 09:57:09;;;;;;;4.22;2.40;;;;;;;31.48;34.01;93145.66;2058228;69;20614;-84
2023/09/02 09:59:36;;;;;;;6.93;2.47;;;;;;;31.42;31.90;93145.69;2058160;69;20698;-84
2023/09/02 10:02:04;;;;;;;4.30;2.70;;;;;;;30.94;32.05;93135.97;2058261;69;20161;-84
2023/09/02 10:04:30;;;;;;;3.55;2.20;;;;;;;31.49;33.11;93141.25;2058282;69;20150;-84
2023/09/02 10:07:03;;;;;;;3.25;2.20;;;;;;;30.35;31.81;93131.31;2058240;69;20189;-85
2023/09/02 10:09:42;;;;;;;3.42;2.20;;;;;;;30.30;33.54;93124.81;2058317;69;20132;-85
2023/09/02 10:12:12;;;;;;;3.17;2.10;;;;;;;32.47;32.53;93137.13;2058391;69;20593;-83
2023/09/02 10:14:40;;;;;;;3.15;2.10;;;;;;;33.49;31.62;93136.16;2058275;69;20192;-85
2023/09/02 10:17:06;;;;;;;5.18;1.95;;;;;;;33.41;31.30;93127.56;2057945;69;20152;-84
2023/09/02 10:19:33;;;;;;;2.38;2.03;;;;;;;33.18;30.12;93127.25;2058362;69;20133;-86
2023/09/02 10:22:04;;;;;;;3.45;2.22;;;;;;;33.80;29.19;93123.91;2055001;69;20134;-87
2023/09/02 10:24:33;;;;;;;2.53;2.10;;;;;;;33.63;28.72;93127.16;2058317;69;20552;-85
2023/09/02 10:27:02;;;;;;;3.20;1.92;;;;;;;34.61;27.88;93122.19;2058091;69;20585;-84
2023/09/02 10:29:32;;;;;;;3.63;2.13;;;;;;;35.02;26.99;93123.41;2058133;69;20174;-88
2023/09/02 10:32:09;;;;;;;2.72;2.17;;;;;;;33.55;29.75;93117.84;2058117;69;20524;-84
2023/09/02 10:34:55;;;;;;;2.58;2.10;;;;;;;35.00;27.57;93109.53;2058239;69;20149;-84
2023/09/02 10:37:25;;;;;;;2.42;2.20;;;;;;;37.09;26.17;93110.88;2050021;69;20160;-85
2023/09/02 10:39:57;;;;;;;2.80;2.30;;;;;;;36.33;27.18;93108.84;2052188;69;20141;-88
2023/09/02 10:42:23;;;;;;;;;;;;;;;36.14;26.02;93106.47;2058449;69;20146;-87
2023/09/02 10:44:49;;;;;;;2.97;2.38;;;;;;;35.03;26.35;93089.75;2058343;69;20046;-85
2023/09/02 10:47:14;;;;;;;3.10;2.20;;;;;;;36.33;25.44;93089.03;2057869;69;20182;-85
2023/09/02 10:49:41;;;;;;;2.35;2.00;;;;;;;37.77;25.81;93091.66;2058336;69;20157;-90
2023/09/02 10:52:08;;;;;;;3.20;2.33;;;;;;;39.99;23.50;93098.97;2058658;69;20513;-86
2023/09/02 10:54:58;;;;;;;2.28;2.08;;;;;;;39.73;22.55;93101.59;2058589;69;20269;-86
2023/09/02 10:57:24;;;;;;;3.92;2.10;;;;;;;40.32;22.53;93104.84;2059011;69;20149;-86
2023/09/02 10:59:49;;;;;;;4.25;2.20;;;;;;;39.12;22.64;93087.19;2058196;69;20157;-88
2023/09/02 11:02:35;;;;;;;2.35;2.00;;;;;;;41.74;21.05;93093.50;2059831;69;20138;-88
2023/09/02 11:05:01;;;;;;;2.67;1.95;;;;;;;40.80;20.67;93101.13;2058856;69;20145;-83
2023/09/02 11:07:27;;;;;;;2.38;1.88;;;;;;;42.60;19.49;93100.78;2057963;69;20707;-83
2023/09/02 11:09:56;;;;;;;1.70;1.60;;;;;;;43.48;19.76;93098.81;2058197;69;20141;-84
2023/09/02 11:12:22;;;;;;;2.53;1.73;;;;;;;43.14;19.95;93091.09;2058211;69;20125;-84
2023/09/02 11:15:06;;;;;;;2.03;1.70;;;;;;;42.43;18.78;93083.25;2057609;69;20201;-86
2023/09/02 11:17:32;;;;;;;1.90;1.65;;;;;;;43.07;19.54;93104.13;2057875;69;20141;-85
2023/09/02 11:20:06;;;;;;;1.70;1.38;;;;;;;45.51;18.33;93090.63;2058213;69;20228;-87
2023/09/02 11:22:55;;;;;;;1.60;1.50;;;;;;;43.04;18.16;93096.91;2058248;69;20590;-86
2023/09/02 11:25:37;;;;;;;3.17;1.50;;;;;;;44.26;18.46;93091.91;2058502;69;20463;-86
2023/09/02 11:28:22;;;;;;;2.15;1.52;;;;;;;45.63;17.26;93089.75;2058709;69;20149;-85
2023/09/02 11:31:12;;;;;;;3.15;1.50;;;;;;;46.58;17.60;93088.41;2056288;69;20161;-84
2023/09/02 11:33:39;;;;;;;3.15;1.20;;;;;;;46.43;17.12;93087.28;2058725;69;20189;-88
2023/09/02 11:36:11;;;;;;;1.50;1.40;;;;;;;49.18;14.83;93092.56;2058453;69;20254;-88
2023/09/02 11:38:36;;;;;;;4.78;1.90;;;;;;;48.45;16.13;93090.19;2058806;69;20224;-87
2023/09/02 11:41:02;;;;;;;3.00;1.50;;;;;;;50.02;14.69;93095.28;2058089;69;20149;-87
2023/09/02 11:43:31;;;;;;;1.20;1.10;;;;;;;50.41;14.24;93097.97;2058112;69;20156;-86
2023/09/02 11:45:58;;;;;;;2.08;1.60;;;;;;;50.17;13.00;93083.53;2058786;69;20169;-88